sensor_id;sensor_type;location;lat;lon;timestamp;P1;durP1;ratioP1;P2;durP2;ratioP2
2434;SDS011;1228;51.022;6.764;2023-03-20T00:02:59;13.27;;;10.17;;
2434;SDS011;1228;51.022;6.764;2023-03-20T00:05:25;13.60;;;11.00;;
2434;SDS011;1228;51.022;6.764;2023-03-20T00:07:52;15.13;;;10.90;;
2434;SDS011;1228;51.022;6.764;2023-03-20T00:10:19;15.80;;;11.50;;
2434;SDS011;1228;51.022;6.764;2023-03-20T00:12:47;12.63;;;11.17;;
2434;SDS011;1228;51.022;6.764;2023-03-20T00:17:56;12.50;;;10.37;;
2434;SDS011;1228;51.022;6.764;2023-03-20T00:20:23;12.47;;;10.83;;
2434;SDS011;1228;51.022;6.764;2023-03-20T00:22:49;12.80;;;10.73;;
2434;SDS011;1228;51.022;6.764;2023-03-20T00:25:16;18.00;;;11.17;;
2434;SDS011;1228;51.022;6.764;2023-03-20T00:27:44;16.00;;;12.73;;
2434;SDS011;1228;51.022;6.764;2023-03-20T00:30:20;12.10;;;10.80;;
2434;SDS011;1228;51.022;6.764;2023-03-20T00:32:52;19.03;;;13.37;;
2434;SDS011;1228;51.022;6.764;2023-03-20T00:35:29;15.27;;;11.57;;
2434;SDS011;1228;51.022;6.764;2023-03-20T00:37:55;13.53;;;11.03;;
2434;SDS011;1228;51.022;6.764;2023-03-20T00:40:28;13.80;;;11.87;;
2434;SDS011;1228;51.022;6.764;2023-03-20T00:42:57;23.23;;;12.60;;
2434;SDS011;1228;51.022;6.764;2023-03-20T00:45:25;15.53;;;11.40;;
2434;SDS011;1228;51.022;6.764;2023-03-20T00:47:51;15.97;;;11.70;;
2434;SDS011;1228;51.022;6.764;2023-03-20T00:50:19;17.00;;;11.47;;
2434;SDS011;1228;51.022;6.764;2023-03-20T00:52:47;15.63;;;11.87;;
2434;SDS011;1228;51.022;6.764;2023-03-20T00:55:14;14.90;;;11.13;;
2434;SDS011;1228;51.022;6.764;2023-03-20T00:58:13;14.47;;;12.17;;
2434;SDS011;1228;51.022;6.764;2023-03-20T01:03:09;13.80;;;10.80;;
2434;SDS011;1228;51.022;6.764;2023-03-20T01:05:43;18.47;;;13.17;;
2434;SDS011;1228;51.022;6.764;2023-03-20T01:08:17;11.90;;;10.43;;
2434;SDS011;1228;51.022;6.764;2023-03-20T01:10:48;13.73;;;10.53;;
2434;SDS011;1228;51.022;6.764;2023-03-20T01:13:20;12.63;;;11.03;;
2434;SDS011;1228;51.022;6.764;2023-03-20T01:15:51;15.60;;;12.70;;
2434;SDS011;1228;51.022;6.764;2023-03-20T01:18:18;15.23;;;11.33;;
2434;SDS011;1228;51.022;6.764;2023-03-20T01:20:45;12.23;;;11.10;;
2434;SDS011;1228;51.022;6.764;2023-03-20T01:23:12;15.10;;;13.63;;
2434;SDS011;1228;51.022;6.764;2023-03-20T01:25:38;12.40;;;11.10;;
2434;SDS011;1228;51.022;6.764;2023-03-20T01:28:11;11.57;;;10.17;;
2434;SDS011;1228;51.022;6.764;2023-03-20T01:30:45;13.87;;;11.03;;
2434;SDS011;1228;51.022;6.764;2023-03-20T01:35:44;12.10;;;10.43;;
2434;SDS011;1228;51.022;6.764;2023-03-20T01:38:29;12.43;;;11.23;;
2434;SDS011;1228;51.022;6.764;2023-03-20T01:41:14;13.17;;;9.93;;
2434;SDS011;1228;51.022;6.764;2023-03-20T01:43:42;12.17;;;10.57;;
2434;SDS011;1228;51.022;6.764;2023-03-20T01:46:14;12.33;;;10.77;;
2434;SDS011;1228;51.022;6.764;2023-03-20T01:51:48;14.53;;;10.50;;
2434;SDS011;1228;51.022;6.764;2023-03-20T01:54:34;12.50;;;10.07;;
2434;SDS011;1228;51.022;6.764;2023-03-20T01:57:11;17.50;;;10.90;;
2434;SDS011;1228;51.022;6.764;2023-03-20T01:59:48;13.27;;;10.57;;
2434;SDS011;1228;51.022;6.764;2023-03-20T02:02:22;14.90;;;9.47;;
2434;SDS011;1228;51.022;6.764;2023-03-20T02:04:55;12.73;;;10.77;;
2434;SDS011;1228;51.022;6.764;2023-03-20T02:07:25;16.20;;;11.10;;
2434;SDS011;1228;51.022;6.764;2023-03-20T02:09:51;14.33;;;10.57;;
2434;SDS011;1228;51.022;6.764;2023-03-20T02:12:17;12.60;;;11.30;;
2434;SDS011;1228;51.022;6.764;2023-03-20T02:14:45;13.33;;;10.27;;
2434;SDS011;1228;51.022;6.764;2023-03-20T02:17:12;11.63;;;10.50;;
2434;SDS011;1228;51.022;6.764;2023-03-20T02:30:55;16.17;;;11.60;;
2434;SDS011;1228;51.022;6.764;2023-03-20T02:36:48;14.00;;;10.60;;
2434;SDS011;1228;51.022;6.764;2023-03-20T02:39:25;14.80;;;12.60;;
2434;SDS011;1228;51.022;6.764;2023-03-20T02:42:18;13.50;;;11.23;;
2434;SDS011;1228;51.022;6.764;2023-03-20T02:47:54;12.17;;;10.60;;
2434;SDS011;1228;51.022;6.764;2023-03-20T02:53:02;16.57;;;11.67;;
2434;SDS011;1228;51.022;6.764;2023-03-20T03:01:08;16.50;;;11.70;;
2434;SDS011;1228;51.022;6.764;2023-03-20T03:03:40;12.40;;;11.03;;
2434;SDS011;1228;51.022;6.764;2023-03-20T03:06:11;13.67;;;11.90;;
2434;SDS011;1228;51.022;6.764;2023-03-20T03:08:46;14.17;;;11.47;;
2434;SDS011;1228;51.022;6.764;2023-03-20T03:11:24;14.20;;;9.53;;
2434;SDS011;1228;51.022;6.764;2023-03-20T03:13:52;13.50;;;11.63;;
2434;SDS011;1228;51.022;6.764;2023-03-20T03:16:21;12.37;;;11.17;;
2434;SDS011;1228;51.022;6.764;2023-03-20T03:18:52;13.40;;;11.03;;
2434;SDS011;1228;51.022;6.764;2023-03-20T03:21:32;12.87;;;11.13;;
2434;SDS011;1228;51.022;6.764;2023-03-20T03:24:01;13.60;;;10.77;;
2434;SDS011;1228;51.022;6.764;2023-03-20T03:26:27;15.07;;;11.97;;
2434;SDS011;1228;51.022;6.764;2023-03-20T03:28:58;13.23;;;11.77;;
2434;SDS011;1228;51.022;6.764;2023-03-20T03:31:27;13.77;;;10.53;;
2434;SDS011;1228;51.022;6.764;2023-03-20T03:33:55;14.60;;;11.63;;
2434;SDS011;1228;51.022;6.764;2023-03-20T03:42:17;11.13;;;10.03;;
2434;SDS011;1228;51.022;6.764;2023-03-20T03:47:43;14.83;;;10.17;;
2434;SDS011;1228;51.022;6.764;2023-03-20T03:50:16;13.73;;;11.17;;
2434;SDS011;1228;51.022;6.764;2023-03-20T03:52:45;12.07;;;10.67;;
2434;SDS011;1228;51.022;6.764;2023-03-20T03:55:17;13.47;;;10.37;;
2434;SDS011;1228;51.022;6.764;2023-03-20T03:57:50;12.77;;;10.90;;
2434;SDS011;1228;51.022;6.764;2023-03-20T04:00:22;13.23;;;11.43;;
2434;SDS011;1228;51.022;6.764;2023-03-20T04:02:52;14.30;;;10.47;;
2434;SDS011;1228;51.022;6.764;2023-03-20T04:05:20;12.70;;;9.93;;
2434;SDS011;1228;51.022;6.764;2023-03-20T04:07:52;15.00;;;10.47;;
2434;SDS011;1228;51.022;6.764;2023-03-20T04:10:19;10.83;;;9.73;;
2434;SDS011;1228;51.022;6.764;2023-03-20T04:12:45;10.50;;;9.63;;
2434;SDS011;1228;51.022;6.764;2023-03-20T04:15:14;13.40;;;9.20;;
2434;SDS011;1228;51.022;6.764;2023-03-20T04:17:40;12.33;;;10.13;;
2434;SDS011;1228;51.022;6.764;2023-03-20T04:20:08;15.77;;;11.10;;
2434;SDS011;1228;51.022;6.764;2023-03-20T04:22:35;10.53;;;9.43;;
2434;SDS011;1228;51.022;6.764;2023-03-20T04:25:01;13.93;;;10.87;;
2434;SDS011;1228;51.022;6.764;2023-03-20T04:27:28;14.80;;;12.50;;
2434;SDS011;1228;51.022;6.764;2023-03-20T04:29:53;34.97;;;21.73;;
2434;SDS011;1228;51.022;6.764;2023-03-20T04:32:19;14.30;;;12.57;;
2434;SDS011;1228;51.022;6.764;2023-03-20T04:34:45;13.90;;;11.03;;
2434;SDS011;1228;51.022;6.764;2023-03-20T04:37:11;12.93;;;10.37;;
2434;SDS011;1228;51.022;6.764;2023-03-20T04:39:36;10.93;;;9.83;;
2434;SDS011;1228;51.022;6.764;2023-03-20T04:42:02;13.57;;;10.27;;
2434;SDS011;1228;51.022;6.764;2023-03-20T04:44:29;15.57;;;10.73;;
2434;SDS011;1228;51.022;6.764;2023-03-20T04:46:55;11.27;;;9.50;;
2434;SDS011;1228;51.022;6.764;2023-03-20T04:49:21;12.53;;;8.57;;
2434;SDS011;1228;51.022;6.764;2023-03-20T04:51:46;12.97;;;10.07;;
2434;SDS011;1228;51.022;6.764;2023-03-20T04:54:12;10.47;;;9.37;;
2434;SDS011;1228;51.022;6.764;2023-03-20T04:56:37;11.37;;;10.37;;
2434;SDS011;1228;51.022;6.764;2023-03-20T04:59:03;11.47;;;10.10;;
2434;SDS011;1228;51.022;6.764;2023-03-20T05:01:28;11.00;;;9.23;;
2434;SDS011;1228;51.022;6.764;2023-03-20T05:03:54;11.17;;;10.17;;
2434;SDS011;1228;51.022;6.764;2023-03-20T05:06:27;15.90;;;12.00;;
2434;SDS011;1228;51.022;6.764;2023-03-20T05:08:55;14.17;;;10.23;;
2434;SDS011;1228;51.022;6.764;2023-03-20T05:11:23;16.97;;;10.93;;
2434;SDS011;1228;51.022;6.764;2023-03-20T05:13:49;14.57;;;10.33;;
2434;SDS011;1228;51.022;6.764;2023-03-20T05:16:15;13.20;;;11.53;;
2434;SDS011;1228;51.022;6.764;2023-03-20T05:18:41;21.90;;;14.13;;
2434;SDS011;1228;51.022;6.764;2023-03-20T05:21:07;16.83;;;12.40;;
2434;SDS011;1228;51.022;6.764;2023-03-20T05:23:32;12.37;;;11.17;;
2434;SDS011;1228;51.022;6.764;2023-03-20T05:25:58;14.20;;;12.70;;
2434;SDS011;1228;51.022;6.764;2023-03-20T05:28:25;30.47;;;27.43;;
2434;SDS011;1228;51.022;6.764;2023-03-20T05:30:51;33.87;;;26.80;;
2434;SDS011;1228;51.022;6.764;2023-03-20T05:33:17;17.03;;;13.57;;
2434;SDS011;1228;51.022;6.764;2023-03-20T05:35:42;17.03;;;13.43;;
2434;SDS011;1228;51.022;6.764;2023-03-20T05:38:08;14.10;;;12.70;;
2434;SDS011;1228;51.022;6.764;2023-03-20T05:40:34;16.50;;;11.93;;
2434;SDS011;1228;51.022;6.764;2023-03-20T05:42:59;13.60;;;11.97;;
2434;SDS011;1228;51.022;6.764;2023-03-20T05:45:25;15.97;;;13.70;;
2434;SDS011;1228;51.022;6.764;2023-03-20T05:47:51;13.10;;;10.37;;
2434;SDS011;1228;51.022;6.764;2023-03-20T05:50:16;13.80;;;11.10;;
2434;SDS011;1228;51.022;6.764;2023-03-20T05:52:45;15.73;;;10.97;;
2434;SDS011;1228;51.022;6.764;2023-03-20T05:55:12;11.87;;;10.60;;
2434;SDS011;1228;51.022;6.764;2023-03-20T05:57:39;11.73;;;10.33;;
2434;SDS011;1228;51.022;6.764;2023-03-20T06:00:04;17.23;;;11.53;;
2434;SDS011;1228;51.022;6.764;2023-03-20T06:02:32;12.37;;;10.97;;
2434;SDS011;1228;51.022;6.764;2023-03-20T06:04:58;11.80;;;10.60;;
2434;SDS011;1228;51.022;6.764;2023-03-20T06:07:23;16.07;;;10.77;;
2434;SDS011;1228;51.022;6.764;2023-03-20T06:09:49;12.37;;;11.17;;
2434;SDS011;1228;51.022;6.764;2023-03-20T06:12:15;12.63;;;10.43;;
2434;SDS011;1228;51.022;6.764;2023-03-20T06:14:41;11.33;;;10.23;;
2434;SDS011;1228;51.022;6.764;2023-03-20T06:17:07;11.83;;;10.00;;
2434;SDS011;1228;51.022;6.764;2023-03-20T06:19:32;11.10;;;9.97;;
2434;SDS011;1228;51.022;6.764;2023-03-20T06:21:58;12.20;;;10.67;;
2434;SDS011;1228;51.022;6.764;2023-03-20T06:24:24;14.53;;;10.40;;
2434;SDS011;1228;51.022;6.764;2023-03-20T06:26:50;11.57;;;10.30;;
2434;SDS011;1228;51.022;6.764;2023-03-20T06:29:15;14.50;;;10.87;;
2434;SDS011;1228;51.022;6.764;2023-03-20T06:31:41;9.83;;;8.77;;
2434;SDS011;1228;51.022;6.764;2023-03-20T06:34:08;16.93;;;10.17;;
2434;SDS011;1228;51.022;6.764;2023-03-20T06:36:33;9.27;;;7.80;;
2434;SDS011;1228;51.022;6.764;2023-03-20T06:38:59;18.83;;;9.73;;
2434;SDS011;1228;51.022;6.764;2023-03-20T06:41:24;13.70;;;11.17;;
2434;SDS011;1228;51.022;6.764;2023-03-20T06:43:50;11.43;;;10.33;;
2434;SDS011;1228;51.022;6.764;2023-03-20T06:46:16;16.83;;;10.07;;
2434;SDS011;1228;51.022;6.764;2023-03-20T06:48:41;11.97;;;9.07;;
2434;SDS011;1228;51.022;6.764;2023-03-20T06:51:07;11.43;;;10.33;;
2434;SDS011;1228;51.022;6.764;2023-03-20T06:53:33;11.17;;;10.07;;
2434;SDS011;1228;51.022;6.764;2023-03-20T06:55:58;13.87;;;9.77;;
2434;SDS011;1228;51.022;6.764;2023-03-20T06:58:24;12.90;;;9.83;;
2434;SDS011;1228;51.022;6.764;2023-03-20T07:00:51;13.43;;;9.73;;
2434;SDS011;1228;51.022;6.764;2023-03-20T07:03:18;13.23;;;11.90;;
2434;SDS011;1228;51.022;6.764;2023-03-20T07:05:44;15.73;;;10.27;;
2434;SDS011;1228;51.022;6.764;2023-03-20T07:08:10;19.60;;;10.43;;
2434;SDS011;1228;51.022;6.764;2023-03-20T07:10:35;13.10;;;9.67;;
2434;SDS011;1228;51.022;6.764;2023-03-20T07:13:02;11.70;;;10.43;;
2434;SDS011;1228;51.022;6.764;2023-03-20T07:15:28;13.57;;;11.13;;
2434;SDS011;1228;51.022;6.764;2023-03-20T07:17:54;11.07;;;10.03;;
2434;SDS011;1228;51.022;6.764;2023-03-20T07:20:20;11.47;;;8.73;;
2434;SDS011;1228;51.022;6.764;2023-03-20T07:22:46;10.27;;;9.30;;
2434;SDS011;1228;51.022;6.764;2023-03-20T07:25:12;17.13;;;10.50;;
2434;SDS011;1228;51.022;6.764;2023-03-20T07:27:38;11.97;;;10.10;;
2434;SDS011;1228;51.022;6.764;2023-03-20T07:30:04;12.73;;;9.77;;
2434;SDS011;1228;51.022;6.764;2023-03-20T07:32:30;14.00;;;11.10;;
2434;SDS011;1228;51.022;6.764;2023-03-20T07:34:56;12.07;;;9.50;;
2434;SDS011;1228;51.022;6.764;2023-03-20T07:37:22;12.00;;;10.10;;
2434;SDS011;1228;51.022;6.764;2023-03-20T07:39:48;14.73;;;13.60;;
2434;SDS011;1228;51.022;6.764;2023-03-20T07:42:13;12.20;;;10.40;;
2434;SDS011;1228;51.022;6.764;2023-03-20T07:44:40;11.47;;;9.77;;
2434;SDS011;1228;51.022;6.764;2023-03-20T07:47:06;11.03;;;9.30;;
2434;SDS011;1228;51.022;6.764;2023-03-20T07:49:31;14.07;;;9.57;;
2434;SDS011;1228;51.022;6.764;2023-03-20T07:51:57;11.23;;;10.20;;
2434;SDS011;1228;51.022;6.764;2023-03-20T07:54:23;10.03;;;9.10;;
2434;SDS011;1228;51.022;6.764;2023-03-20T07:56:49;10.60;;;9.80;;
2434;SDS011;1228;51.022;6.764;2023-03-20T07:59:15;9.27;;;8.33;;
2434;SDS011;1228;51.022;6.764;2023-03-20T08:01:41;10.63;;;9.73;;
2434;SDS011;1228;51.022;6.764;2023-03-20T08:04:07;11.53;;;8.47;;
2434;SDS011;1228;51.022;6.764;2023-03-20T08:06:32;10.57;;;8.90;;
2434;SDS011;1228;51.022;6.764;2023-03-20T08:08:59;10.57;;;9.77;;
2434;SDS011;1228;51.022;6.764;2023-03-20T08:11:24;7.70;;;7.17;;
2434;SDS011;1228;51.022;6.764;2023-03-20T08:13:50;9.53;;;8.60;;
2434;SDS011;1228;51.022;6.764;2023-03-20T08:16:16;9.47;;;8.67;;
2434;SDS011;1228;51.022;6.764;2023-03-20T08:18:41;7.80;;;7.20;;
2434;SDS011;1228;51.022;6.764;2023-03-20T08:21:07;8.60;;;7.80;;
2434;SDS011;1228;51.022;6.764;2023-03-20T08:23:33;7.77;;;7.17;;
2434;SDS011;1228;51.022;6.764;2023-03-20T08:25:58;8.17;;;7.47;;
2434;SDS011;1228;51.022;6.764;2023-03-20T08:28:24;7.60;;;6.90;;
2434;SDS011;1228;51.022;6.764;2023-03-20T08:30:50;8.50;;;7.30;;
2434;SDS011;1228;51.022;6.764;2023-03-20T08:33:16;8.40;;;7.77;;
2434;SDS011;1228;51.022;6.764;2023-03-20T08:35:43;8.43;;;7.67;;
2434;SDS011;1228;51.022;6.764;2023-03-20T08:38:12;9.50;;;7.93;;
2434;SDS011;1228;51.022;6.764;2023-03-20T08:40:41;8.23;;;7.53;;
2434;SDS011;1228;51.022;6.764;2023-03-20T08:43:06;7.57;;;6.97;;
2434;SDS011;1228;51.022;6.764;2023-03-20T08:45:33;9.63;;;8.73;;
2434;SDS011;1228;51.022;6.764;2023-03-20T08:47:58;9.53;;;8.67;;
2434;SDS011;1228;51.022;6.764;2023-03-20T08:50:24;9.80;;;8.53;;
2434;SDS011;1228;51.022;6.764;2023-03-20T08:52:50;7.70;;;6.97;;
2434;SDS011;1228;51.022;6.764;2023-03-20T08:55:15;7.63;;;7.03;;
2434;SDS011;1228;51.022;6.764;2023-03-20T08:57:41;7.47;;;6.83;;
2434;SDS011;1228;51.022;6.764;2023-03-20T09:00:07;12.93;;;7.03;;
2434;SDS011;1228;51.022;6.764;2023-03-20T09:02:36;7.00;;;6.43;;
2434;SDS011;1228;51.022;6.764;2023-03-20T09:05:01;7.20;;;6.50;;
2434;SDS011;1228;51.022;6.764;2023-03-20T09:07:27;6.50;;;5.97;;
2434;SDS011;1228;51.022;6.764;2023-03-20T09:09:53;7.97;;;7.03;;
2434;SDS011;1228;51.022;6.764;2023-03-20T09:12:18;7.97;;;7.17;;
2434;SDS011;1228;51.022;6.764;2023-03-20T09:14:44;8.50;;;6.87;;
2434;SDS011;1228;51.022;6.764;2023-03-20T09:17:10;9.03;;;6.77;;
2434;SDS011;1228;51.022;6.764;2023-03-20T09:19:35;7.70;;;7.00;;
2434;SDS011;1228;51.022;6.764;2023-03-20T09:22:03;7.30;;;6.30;;
2434;SDS011;1228;51.022;6.764;2023-03-20T09:24:30;8.23;;;6.30;;
2434;SDS011;1228;51.022;6.764;2023-03-20T09:26:56;12.73;;;7.27;;
2434;SDS011;1228;51.022;6.764;2023-03-20T09:29:22;9.20;;;6.27;;
2434;SDS011;1228;51.022;6.764;2023-03-20T09:31:48;10.23;;;7.20;;
2434;SDS011;1228;51.022;6.764;2023-03-20T09:34:14;6.93;;;6.33;;
2434;SDS011;1228;51.022;6.764;2023-03-20T09:36:40;7.33;;;6.73;;
2434;SDS011;1228;51.022;6.764;2023-03-20T09:39:05;6.20;;;5.60;;
2434;SDS011;1228;51.022;6.764;2023-03-20T09:41:31;7.33;;;6.60;;
2434;SDS011;1228;51.022;6.764;2023-03-20T09:47:03;5.97;;;5.50;;
2434;SDS011;1228;51.022;6.764;2023-03-20T09:49:44;6.00;;;5.50;;
2434;SDS011;1228;51.022;6.764;2023-03-20T09:52:20;5.90;;;5.50;;
2434;SDS011;1228;51.022;6.764;2023-03-20T09:54:55;7.50;;;6.43;;
2434;SDS011;1228;51.022;6.764;2023-03-20T10:00:00;5.80;;;5.30;;
2434;SDS011;1228;51.022;6.764;2023-03-20T10:05:05;6.30;;;5.77;;
2434;SDS011;1228;51.022;6.764;2023-03-20T10:07:42;6.03;;;5.47;;
2434;SDS011;1228;51.022;6.764;2023-03-20T10:10:09;6.00;;;5.40;;
2434;SDS011;1228;51.022;6.764;2023-03-20T10:12:42;5.90;;;5.50;;
2434;SDS011;1228;51.022;6.764;2023-03-20T10:18:13;6.83;;;5.87;;
2434;SDS011;1228;51.022;6.764;2023-03-20T10:23:34;5.47;;;5.17;;
2434;SDS011;1228;51.022;6.764;2023-03-20T10:26:08;6.00;;;5.40;;
2434;SDS011;1228;51.022;6.764;2023-03-20T10:31:18;5.57;;;5.10;;
2434;SDS011;1228;51.022;6.764;2023-03-20T10:41:55;6.23;;;4.70;;
2434;SDS011;1228;51.022;6.764;2023-03-20T10:44:28;5.27;;;4.77;;
2434;SDS011;1228;51.022;6.764;2023-03-20T10:46:58;7.17;;;5.43;;
2434;SDS011;1228;51.022;6.764;2023-03-20T10:49:33;6.03;;;5.07;;
2434;SDS011;1228;51.022;6.764;2023-03-20T10:52:05;4.90;;;4.60;;
2434;SDS011;1228;51.022;6.764;2023-03-20T10:54:39;6.07;;;5.57;;
2434;SDS011;1228;51.022;6.764;2023-03-20T10:57:11;5.60;;;5.10;;
2434;SDS011;1228;51.022;6.764;2023-03-20T10:59:42;5.17;;;4.77;;
2434;SDS011;1228;51.022;6.764;2023-03-20T11:02:15;5.10;;;4.63;;
2434;SDS011;1228;51.022;6.764;2023-03-20T11:04:42;8.20;;;5.23;;
2434;SDS011;1228;51.022;6.764;2023-03-20T11:09:34;5.37;;;4.97;;
2434;SDS011;1228;51.022;6.764;2023-03-20T11:12:00;7.87;;;5.47;;
2434;SDS011;1228;51.022;6.764;2023-03-20T11:14:31;5.93;;;5.50;;
2434;SDS011;1228;51.022;6.764;2023-03-20T11:17:00;5.53;;;5.13;;
2434;SDS011;1228;51.022;6.764;2023-03-20T11:19:27;4.90;;;4.60;;
2434;SDS011;1228;51.022;6.764;2023-03-20T11:22:05;5.97;;;5.40;;
2434;SDS011;1228;51.022;6.764;2023-03-20T11:27:06;6.00;;;5.50;;
2434;SDS011;1228;51.022;6.764;2023-03-20T11:29:38;5.80;;;5.30;;
2434;SDS011;1228;51.022;6.764;2023-03-20T11:32:25;6.17;;;5.13;;
2434;SDS011;1228;51.022;6.764;2023-03-20T11:34:55;6.77;;;5.50;;
2434;SDS011;1228;51.022;6.764;2023-03-20T11:37:33;5.63;;;5.23;;
2434;SDS011;1228;51.022;6.764;2023-03-20T11:40:06;7.57;;;5.10;;
2434;SDS011;1228;51.022;6.764;2023-03-20T11:42:50;8.17;;;6.10;;
2434;SDS011;1228;51.022;6.764;2023-03-20T11:45:25;7.37;;;6.77;;
2434;SDS011;1228;51.022;6.764;2023-03-20T11:47:53;6.57;;;6.17;;
2434;SDS011;1228;51.022;6.764;2023-03-20T11:50:33;5.20;;;4.90;;
2434;SDS011;1228;51.022;6.764;2023-03-20T11:53:02;6.00;;;5.50;;
2434;SDS011;1228;51.022;6.764;2023-03-20T11:55:41;6.43;;;5.83;;
2434;SDS011;1228;51.022;6.764;2023-03-20T11:58:23;6.60;;;6.20;;
2434;SDS011;1228;51.022;6.764;2023-03-20T12:00:49;6.77;;;6.20;;
2434;SDS011;1228;51.022;6.764;2023-03-20T12:03:39;6.47;;;5.97;;
2434;SDS011;1228;51.022;6.764;2023-03-20T12:06:06;6.10;;;5.77;;
2434;SDS011;1228;51.022;6.764;2023-03-20T12:08:42;6.30;;;5.80;;
2434;SDS011;1228;51.022;6.764;2023-03-20T12:11:18;7.13;;;6.30;;
2434;SDS011;1228;51.022;6.764;2023-03-20T12:13:50;6.17;;;5.87;;
2434;SDS011;1228;51.022;6.764;2023-03-20T12:16:20;5.67;;;5.37;;
2434;SDS011;1228;51.022;6.764;2023-03-20T12:18:56;6.60;;;6.00;;
2434;SDS011;1228;51.022;6.764;2023-03-20T12:21:28;7.37;;;5.30;;
2434;SDS011;1228;51.022;6.764;2023-03-20T12:27:17;5.40;;;5.10;;
2434;SDS011;1228;51.022;6.764;2023-03-20T12:35:17;5.90;;;5.40;;
2434;SDS011;1228;51.022;6.764;2023-03-20T12:37:50;8.20;;;7.40;;
2434;SDS011;1228;51.022;6.764;2023-03-20T12:40:16;5.37;;;5.07;;
2434;SDS011;1228;51.022;6.764;2023-03-20T12:45:23;6.40;;;5.70;;
2434;SDS011;1228;51.022;6.764;2023-03-20T12:53:52;6.70;;;5.77;;
2434;SDS011;1228;51.022;6.764;2023-03-20T12:59:07;5.77;;;5.23;;
2434;SDS011;1228;51.022;6.764;2023-03-20T13:01:44;8.50;;;4.60;;
2434;SDS011;1228;51.022;6.764;2023-03-20T13:07:14;4.90;;;4.60;;
2434;SDS011;1228;51.022;6.764;2023-03-20T13:18:13;4.50;;;4.30;;
2434;SDS011;1228;51.022;6.764;2023-03-20T13:20:54;4.73;;;4.47;;
2434;SDS011;1228;51.022;6.764;2023-03-20T13:23:24;5.40;;;4.90;;
2434;SDS011;1228;51.022;6.764;2023-03-20T13:28:54;4.67;;;4.37;;
2434;SDS011;1228;51.022;6.764;2023-03-20T13:34:11;5.50;;;4.93;;
2434;SDS011;1228;51.022;6.764;2023-03-20T13:37:14;6.33;;;5.43;;
2434;SDS011;1228;51.022;6.764;2023-03-20T13:42:36;4.77;;;4.47;;
2434;SDS011;1228;51.022;6.764;2023-03-20T13:45:24;4.67;;;4.37;;
2434;SDS011;1228;51.022;6.764;2023-03-20T13:48:18;4.50;;;4.20;;
2434;SDS011;1228;51.022;6.764;2023-03-20T13:51:09;5.40;;;4.80;;
2434;SDS011;1228;51.022;6.764;2023-03-20T13:56:43;4.60;;;4.40;;
2434;SDS011;1228;51.022;6.764;2023-03-20T14:05:02;5.20;;;4.50;;
2434;SDS011;1228;51.022;6.764;2023-03-20T14:07:35;5.27;;;4.87;;
2434;SDS011;1228;51.022;6.764;2023-03-20T14:15:18;5.13;;;4.63;;
2434;SDS011;1228;51.022;6.764;2023-03-20T14:17:47;4.67;;;4.27;;
2434;SDS011;1228;51.022;6.764;2023-03-20T14:20:37;4.83;;;4.53;;
2434;SDS011;1228;51.022;6.764;2023-03-20T14:23:02;6.67;;;4.50;;
2434;SDS011;1228;51.022;6.764;2023-03-20T14:25:32;5.00;;;4.60;;
2434;SDS011;1228;51.022;6.764;2023-03-20T14:30:38;4.73;;;4.37;;
2434;SDS011;1228;51.022;6.764;2023-03-20T14:35:50;4.90;;;4.43;;
2434;SDS011;1228;51.022;6.764;2023-03-20T14:44:43;4.80;;;4.43;;
2434;SDS011;1228;51.022;6.764;2023-03-20T14:47:42;4.77;;;4.50;;
2434;SDS011;1228;51.022;6.764;2023-03-20T14:53:35;5.13;;;4.83;;
2434;SDS011;1228;51.022;6.764;2023-03-20T15:01:02;7.83;;;4.70;;
2434;SDS011;1228;51.022;6.764;2023-03-20T15:03:29;6.50;;;4.70;;
2434;SDS011;1228;51.022;6.764;2023-03-20T15:06:00;4.50;;;4.20;;
2434;SDS011;1228;51.022;6.764;2023-03-20T15:08:46;4.80;;;4.50;;
2434;SDS011;1228;51.022;6.764;2023-03-20T15:11:19;4.90;;;4.60;;
2434;SDS011;1228;51.022;6.764;2023-03-20T15:13:47;5.30;;;4.90;;
2434;SDS011;1228;51.022;6.764;2023-03-20T15:16:15;5.03;;;4.30;;
2434;SDS011;1228;51.022;6.764;2023-03-20T15:21:15;4.57;;;4.27;;
2434;SDS011;1228;51.022;6.764;2023-03-20T15:23:59;5.50;;;4.67;;
2434;SDS011;1228;51.022;6.764;2023-03-20T15:26:25;4.70;;;4.40;;
2434;SDS011;1228;51.022;6.764;2023-03-20T15:29:03;5.00;;;4.70;;
2434;SDS011;1228;51.022;6.764;2023-03-20T15:31:32;4.80;;;4.40;;
2434;SDS011;1228;51.022;6.764;2023-03-20T15:34:02;5.03;;;4.50;;
2434;SDS011;1228;51.022;6.764;2023-03-20T15:36:31;5.10;;;4.60;;
2434;SDS011;1228;51.022;6.764;2023-03-20T15:39:12;4.60;;;4.30;;
2434;SDS011;1228;51.022;6.764;2023-03-20T15:44:37;5.10;;;4.70;;
2434;SDS011;1228;51.022;6.764;2023-03-20T15:47:12;4.60;;;4.40;;
2434;SDS011;1228;51.022;6.764;2023-03-20T15:49:47;4.70;;;4.40;;
2434;SDS011;1228;51.022;6.764;2023-03-20T15:55:05;7.30;;;5.00;;
2434;SDS011;1228;51.022;6.764;2023-03-20T15:57:36;5.47;;;4.67;;
2434;SDS011;1228;51.022;6.764;2023-03-20T16:00:08;5.10;;;4.67;;
2434;SDS011;1228;51.022;6.764;2023-03-20T16:02:44;4.83;;;4.57;;
2434;SDS011;1228;51.022;6.764;2023-03-20T16:05:12;5.17;;;4.77;;
2434;SDS011;1228;51.022;6.764;2023-03-20T16:07:38;7.60;;;5.20;;
2434;SDS011;1228;51.022;6.764;2023-03-20T16:10:17;7.70;;;4.80;;
2434;SDS011;1228;51.022;6.764;2023-03-20T16:12:51;5.17;;;4.47;;
2434;SDS011;1228;51.022;6.764;2023-03-20T16:15:21;5.97;;;4.70;;
2434;SDS011;1228;51.022;6.764;2023-03-20T16:17:51;5.10;;;4.70;;
2434;SDS011;1228;51.022;6.764;2023-03-20T16:20:20;4.90;;;4.60;;
2434;SDS011;1228;51.022;6.764;2023-03-20T16:22:47;5.27;;;4.70;;
2434;SDS011;1228;51.022;6.764;2023-03-20T16:25:15;4.97;;;4.67;;
2434;SDS011;1228;51.022;6.764;2023-03-20T16:27:43;5.93;;;5.20;;
2434;SDS011;1228;51.022;6.764;2023-03-20T16:30:15;5.93;;;5.43;;
2434;SDS011;1228;51.022;6.764;2023-03-20T16:32:44;5.77;;;5.37;;
2434;SDS011;1228;51.022;6.764;2023-03-20T16:35:16;9.23;;;4.67;;
2434;SDS011;1228;51.022;6.764;2023-03-20T16:37:54;4.70;;;4.30;;
2434;SDS011;1228;51.022;6.764;2023-03-20T16:40:24;7.67;;;4.30;;
2434;SDS011;1228;51.022;6.764;2023-03-20T16:42:52;4.70;;;4.40;;
2434;SDS011;1228;51.022;6.764;2023-03-20T16:45:29;4.73;;;4.20;;
2434;SDS011;1228;51.022;6.764;2023-03-20T16:50:35;4.30;;;4.10;;
2434;SDS011;1228;51.022;6.764;2023-03-20T16:53:04;4.80;;;4.40;;
2434;SDS011;1228;51.022;6.764;2023-03-20T16:55:36;4.33;;;4.13;;
2434;SDS011;1228;51.022;6.764;2023-03-20T16:58:06;12.27;;;4.03;;
2434;SDS011;1228;51.022;6.764;2023-03-20T17:00:40;5.00;;;4.70;;
2434;SDS011;1228;51.022;6.764;2023-03-20T17:03:16;4.70;;;4.40;;
2434;SDS011;1228;51.022;6.764;2023-03-20T17:08:12;4.60;;;4.30;;
2434;SDS011;1228;51.022;6.764;2023-03-20T17:10:42;4.70;;;4.40;;
2434;SDS011;1228;51.022;6.764;2023-03-20T17:13:08;4.57;;;4.27;;
2434;SDS011;1228;51.022;6.764;2023-03-20T17:15:34;4.37;;;4.10;;
2434;SDS011;1228;51.022;6.764;2023-03-20T17:17:59;4.67;;;4.23;;
2434;SDS011;1228;51.022;6.764;2023-03-20T17:20:28;5.13;;;4.73;;
2434;SDS011;1228;51.022;6.764;2023-03-20T17:22:55;5.33;;;4.93;;
2434;SDS011;1228;51.022;6.764;2023-03-20T17:25:21;4.40;;;4.20;;
2434;SDS011;1228;51.022;6.764;2023-03-20T17:27:47;4.50;;;4.20;;
2434;SDS011;1228;51.022;6.764;2023-03-20T17:30:14;6.13;;;4.80;;
2434;SDS011;1228;51.022;6.764;2023-03-20T17:32:42;5.23;;;4.77;;
2434;SDS011;1228;51.022;6.764;2023-03-20T17:35:08;5.30;;;4.87;;
2434;SDS011;1228;51.022;6.764;2023-03-20T17:37:33;4.57;;;4.23;;
2434;SDS011;1228;51.022;6.764;2023-03-20T17:39:59;6.93;;;4.90;;
2434;SDS011;1228;51.022;6.764;2023-03-20T17:42:25;4.87;;;4.57;;
2434;SDS011;1228;51.022;6.764;2023-03-20T17:44:55;5.87;;;4.53;;
2434;SDS011;1228;51.022;6.764;2023-03-20T17:47:22;5.00;;;4.60;;
2434;SDS011;1228;51.022;6.764;2023-03-20T17:49:49;5.13;;;4.73;;
2434;SDS011;1228;51.022;6.764;2023-03-20T17:52:20;6.53;;;4.80;;
2434;SDS011;1228;51.022;6.764;2023-03-20T17:54:47;10.03;;;4.77;;
2434;SDS011;1228;51.022;6.764;2023-03-20T17:57:27;4.70;;;4.40;;
2434;SDS011;1228;51.022;6.764;2023-03-20T17:59:56;4.47;;;4.07;;
2434;SDS011;1228;51.022;6.764;2023-03-20T18:02:22;5.33;;;5.03;;